createdAt,value
2018-09-24T00:00:10.638Z,19.62
2018-09-24T00:02:38.631Z,20.90
2018-09-24T00:05:06.969Z,23.40
2018-09-24T00:07:35.140Z,23.20
2018-09-24T00:10:03.292Z,23.73
2018-09-24T00:12:31.466Z,23.85
2018-09-24T00:14:59.691Z,24.92
2018-09-24T00:17:27.939Z,25.65
2018-09-24T00:19:56.152Z,22.40
2018-09-24T00:22:24.403Z,24.00
2018-09-24T00:24:52.561Z,22.98
2018-09-24T00:27:20.753Z,22.98
2018-09-24T00:29:49.073Z,22.10
2018-09-24T00:32:17.319Z,23.55
2018-09-24T00:34:45.560Z,22.73
2018-09-24T00:37:13.727Z,23.18
2018-09-24T00:39:41.923Z,23.27
2018-09-24T00:42:10.131Z,22.67
2018-09-24T00:44:38.461Z,22.80
2018-09-24T00:47:06.689Z,22.48
2018-09-24T00:49:35.355Z,23.22
2018-09-24T00:52:03.520Z,22.70
2018-09-24T00:54:31.784Z,23.42
2018-09-24T00:57:00.069Z,24.37
2018-09-24T00:59:28.404Z,23.65
2018-09-24T01:01:56.627Z,21.62
2018-09-24T01:04:24.877Z,23.47
2018-09-24T01:06:53.153Z,24.75
2018-09-24T01:09:21.364Z,24.37
2018-09-24T01:11:49.580Z,26.07
2018-09-24T01:14:17.787Z,24.55
2018-09-24T01:16:46.055Z,24.00
2018-09-24T01:19:14.334Z,23.10
2018-09-24T01:21:42.603Z,23.90
2018-09-24T01:24:11.000Z,23.05
2018-09-24T01:26:39.232Z,23.60
2018-09-24T01:29:09.451Z,23.55
2018-09-24T01:31:37.704Z,23.32
2018-09-24T01:34:06.026Z,22.67
2018-09-24T01:36:34.370Z,22.75
2018-09-24T01:39:02.559Z,23.52
2018-09-24T01:41:30.855Z,22.25
2018-09-24T01:43:59.197Z,24.18
2018-09-24T01:46:27.408Z,23.32
2018-09-24T01:48:55.678Z,22.17
2018-09-24T01:51:31.395Z,21.33
2018-09-24T01:53:59.612Z,21.33
2018-09-24T01:56:27.888Z,20.68
2018-09-24T01:58:56.148Z,20.97
2018-09-24T02:01:24.452Z,24.05
2018-09-24T02:03:52.682Z,22.40
2018-09-24T02:06:20.870Z,25.55
2018-09-24T02:08:49.501Z,22.25
2018-09-24T02:11:17.740Z,22.65
2018-09-24T02:13:47.559Z,22.35
2018-09-24T02:16:16.183Z,23.98
2018-09-24T02:18:44.748Z,23.80
2018-09-24T02:21:12.921Z,23.27
2018-09-24T02:23:41.093Z,24.05
2018-09-24T02:26:09.444Z,22.22
2018-09-24T02:28:37.620Z,24.23
2018-09-24T02:31:05.820Z,24.27
2018-09-24T02:33:33.979Z,25.77
2018-09-24T02:36:02.163Z,26.42
2018-09-24T02:38:36.019Z,24.27
2018-09-24T02:41:04.291Z,25.12
2018-09-24T02:43:32.447Z,23.57
2018-09-24T02:46:00.671Z,23.80
2018-09-24T02:48:28.843Z,23.25
2018-09-24T02:50:57.022Z,23.47
2018-09-24T02:53:25.195Z,21.75
2018-09-24T02:55:53.405Z,23.42
2018-09-24T02:58:22.400Z,23.42
2018-09-24T03:00:51.021Z,22.73
2018-09-24T03:03:19.231Z,24.40
2018-09-24T03:05:47.515Z,23.52
2018-09-24T03:08:15.711Z,22.05
2018-09-24T03:10:43.912Z,20.50
2018-09-24T03:13:12.152Z,20.55
2018-09-24T03:15:41.415Z,21.17
2018-09-24T03:18:10.303Z,23.10
2018-09-24T03:20:41.084Z,20.10
2018-09-24T03:23:09.761Z,19.73
2018-09-24T03:25:38.415Z,19.20
2018-09-24T03:28:06.573Z,19.67
2018-09-24T03:30:38.623Z,20.45
2018-09-24T03:33:06.796Z,20.08
2018-09-24T03:35:35.180Z,21.20
2018-09-24T03:38:03.442Z,22.35
2018-09-24T03:40:32.079Z,24.80
2018-09-24T03:43:00.385Z,25.02
2018-09-24T03:45:29.445Z,24.60
2018-09-24T03:47:57.696Z,25.95
2018-09-24T03:50:25.839Z,23.42
2018-09-24T03:52:54.026Z,27.07
2018-09-24T03:55:22.178Z,24.92
2018-09-24T03:57:50.349Z,24.02
2018-09-24T04:00:18.507Z,23.75
2018-09-24T04:02:47.088Z,22.67
2018-09-24T04:05:20.787Z,23.42
2018-09-24T04:07:58.257Z,24.70
2018-09-24T04:10:31.754Z,24.40
2018-09-24T04:13:05.447Z,22.37
2018-09-24T04:15:39.059Z,23.80
2018-09-24T04:18:12.672Z,23.85
2018-09-24T04:20:46.388Z,23.05
2018-09-24T04:23:20.170Z,22.15
2018-09-24T04:25:53.649Z,20.95
2018-09-24T04:28:27.275Z,21.93
2018-09-24T04:31:00.680Z,24.20
2018-09-24T04:33:34.353Z,22.93
2018-09-24T04:36:08.001Z,24.20
2018-09-24T04:38:41.525Z,24.40
2018-09-24T04:41:15.025Z,24.30
2018-09-24T04:43:48.651Z,24.32
2018-09-24T04:46:22.246Z,24.90
2018-09-24T04:48:55.935Z,24.63
2018-09-24T04:51:29.595Z,22.17
2018-09-24T04:54:03.083Z,23.38
2018-09-24T04:56:36.520Z,22.17
2018-09-24T04:59:10.057Z,23.35
2018-09-24T05:01:43.586Z,21.77
2018-09-24T05:04:17.203Z,21.97
2018-09-24T05:06:50.665Z,18.77
2018-09-24T05:09:24.136Z,19.10
2018-09-24T05:11:57.783Z,19.42
2018-09-24T05:14:31.375Z,18.15
2018-09-24T05:17:04.948Z,16.42
2018-09-24T05:19:38.412Z,15.18
2018-09-24T05:22:12.093Z,15.20
2018-09-24T05:24:45.615Z,14.83
2018-09-24T05:27:19.187Z,13.90
2018-09-24T05:29:52.806Z,14.55
2018-09-24T05:32:26.426Z,14.05
2018-09-24T05:35:00.016Z,13.05
2018-09-24T05:37:33.652Z,13.25
2018-09-24T05:40:07.247Z,13.00
2018-09-24T05:42:40.797Z,13.30
2018-09-24T05:45:14.734Z,13.48
2018-09-24T05:47:48.287Z,11.10
2018-09-24T05:50:21.727Z,12.18
2018-09-24T05:52:55.355Z,10.40
2018-09-24T05:55:28.807Z,10.38
2018-09-24T05:58:02.501Z,11.65
2018-09-24T06:00:36.208Z,10.75
2018-09-24T06:03:09.783Z,10.43
2018-09-24T06:05:43.479Z,10.38
2018-09-24T06:08:16.918Z,11.43
2018-09-24T06:10:50.586Z,10.50
2018-09-24T06:13:24.267Z,9.05
2018-09-24T06:15:57.807Z,10.38
2018-09-24T06:18:31.518Z,9.80
2018-09-24T06:21:05.012Z,8.68
2018-09-24T06:23:38.588Z,8.90
2018-09-24T06:26:12.153Z,8.53
2018-09-24T06:28:45.830Z,7.83
2018-09-24T06:31:19.487Z,7.50
2018-09-24T06:33:53.112Z,6.70
2018-09-24T06:36:26.628Z,6.25
2018-09-24T06:39:00.290Z,6.15
2018-09-24T06:41:33.845Z,6.55
2018-09-24T06:44:07.532Z,6.87
2018-09-24T06:46:41.234Z,6.78
2018-09-24T06:49:14.840Z,6.42
2018-09-24T06:51:48.312Z,5.72
2018-09-24T06:54:21.939Z,6.28
2018-09-24T06:56:55.595Z,5.70
2018-09-24T06:59:29.586Z,5.72
2018-09-24T07:02:03.160Z,5.10
2018-09-24T07:04:36.696Z,5.72
2018-09-24T07:07:10.378Z,6.00
2018-09-24T07:09:43.863Z,5.45
2018-09-24T07:12:17.449Z,6.03
2018-09-24T07:14:50.807Z,5.50
2018-09-24T07:17:24.445Z,4.87
2018-09-24T07:19:58.124Z,4.10
2018-09-24T07:22:31.650Z,4.53
2018-09-24T07:25:05.200Z,4.60
2018-09-24T07:27:38.861Z,4.00
2018-09-24T07:30:12.527Z,3.20
2018-09-24T07:32:46.155Z,4.27
2018-09-24T07:35:19.769Z,4.33
2018-09-24T07:37:53.435Z,4.47
2018-09-24T07:40:27.134Z,4.00
2018-09-24T07:43:00.809Z,4.77
2018-09-24T07:45:34.323Z,3.53
2018-09-24T07:48:07.986Z,3.97
2018-09-24T07:50:41.640Z,3.60
2018-09-24T07:53:15.333Z,4.13
2018-09-24T07:55:49.119Z,4.07
2018-09-24T07:58:22.582Z,3.40
2018-09-24T08:00:56.316Z,3.50
2018-09-24T08:03:29.805Z,3.70
2018-09-24T08:06:03.517Z,3.63
2018-09-24T08:08:37.072Z,3.10
2018-09-24T08:11:10.700Z,4.20
2018-09-24T08:13:44.237Z,2.43
2018-09-24T08:16:17.783Z,2.97
2018-09-24T08:18:51.568Z,3.30
2018-09-24T08:21:25.061Z,3.53
2018-09-24T08:23:58.813Z,3.80
2018-09-24T08:26:32.464Z,3.47
2018-09-24T08:29:06.098Z,3.10
2018-09-24T08:31:39.619Z,4.30
2018-09-24T08:34:13.278Z,2.70
2018-09-24T08:36:46.978Z,3.33
2018-09-24T08:39:20.669Z,3.13
2018-09-24T08:41:54.183Z,3.43
2018-09-24T08:44:27.792Z,4.33
2018-09-24T08:47:01.400Z,4.37
2018-09-24T08:49:34.891Z,3.70
2018-09-24T08:52:08.512Z,3.27
2018-09-24T08:54:42.127Z,3.47
2018-09-24T08:57:15.869Z,3.00
2018-09-24T08:59:49.378Z,2.80
2018-09-24T09:02:22.892Z,2.90
2018-09-24T09:04:56.518Z,2.90
2018-09-24T09:07:30.126Z,3.00
2018-09-24T09:10:03.656Z,3.57
2018-09-24T09:12:37.233Z,3.57
2018-09-24T09:15:10.920Z,2.90
2018-09-24T09:17:44.567Z,2.27
2018-09-24T09:20:18.211Z,2.40
2018-09-24T09:22:51.813Z,2.47
2018-09-24T09:25:25.410Z,2.60
2018-09-24T09:27:59.092Z,2.63
2018-09-24T09:30:32.790Z,2.53
2018-09-24T09:33:06.474Z,2.47
2018-09-24T09:35:39.842Z,2.70
2018-09-24T09:38:13.359Z,2.13
2018-09-24T09:40:47.047Z,2.90
2018-09-24T09:43:20.663Z,2.00
2018-09-24T09:45:54.324Z,1.83
2018-09-24T09:48:27.964Z,2.40
2018-09-24T09:51:01.556Z,2.43
2018-09-24T09:53:35.491Z,2.60
2018-09-24T09:56:09.004Z,2.23
2018-09-24T09:58:42.419Z,2.13
2018-09-24T10:01:16.037Z,2.90
2018-09-24T10:03:49.658Z,1.90
2018-09-24T10:06:23.199Z,2.00
2018-09-24T10:08:56.948Z,2.30
2018-09-24T10:11:30.569Z,2.50
2018-09-24T10:14:04.267Z,1.83
2018-09-24T10:16:37.793Z,2.43
2018-09-24T10:19:11.218Z,2.20
2018-09-24T10:21:44.728Z,2.30
2018-09-24T10:24:18.358Z,2.23
2018-09-24T10:26:51.915Z,2.40
2018-09-24T10:29:25.489Z,1.80
2018-09-24T10:31:59.140Z,1.77
2018-09-24T10:34:32.664Z,1.40
2018-09-24T10:37:06.378Z,2.50
2018-09-24T10:39:40.145Z,2.37
2018-09-24T10:42:13.709Z,2.10
2018-09-24T10:44:47.311Z,1.80
2018-09-24T10:47:20.967Z,2.10
2018-09-24T10:49:54.685Z,1.47
2018-09-24T10:52:28.252Z,1.67
2018-09-24T10:55:01.764Z,2.80
2018-09-24T10:57:35.452Z,1.60
2018-09-24T11:00:08.979Z,2.20
2018-09-24T11:02:42.415Z,2.57
2018-09-24T11:05:15.824Z,1.40
2018-09-24T11:07:49.405Z,2.40
2018-09-24T11:10:23.150Z,1.50
2018-09-24T11:12:56.587Z,2.00
2018-09-24T11:15:30.123Z,2.03
2018-09-24T11:18:03.625Z,1.90
2018-09-24T11:20:37.731Z,3.23
2018-09-24T11:23:11.654Z,2.03
2018-09-24T11:25:44.945Z,2.17
2018-09-24T11:28:18.695Z,2.30
2018-09-24T11:33:42.866Z,1.37
2018-09-24T11:36:16.546Z,2.63
2018-09-24T11:38:50.158Z,1.60
2018-09-24T11:41:23.924Z,1.93
2018-09-24T11:43:57.561Z,1.27
2018-09-24T11:46:31.224Z,2.00
2018-09-24T11:49:04.867Z,2.20
2018-09-24T11:51:38.546Z,2.20
2018-09-24T11:54:12.040Z,1.93
2018-09-24T11:56:45.711Z,2.40
2018-09-24T11:59:19.050Z,1.63
2018-09-24T12:01:52.608Z,1.50
2018-09-24T12:04:26.267Z,1.70
2018-09-24T12:06:59.821Z,2.33
2018-09-24T12:09:33.404Z,1.63
2018-09-24T12:12:06.824Z,1.30
2018-09-24T12:14:40.412Z,2.20
2018-09-24T12:17:13.902Z,2.03
2018-09-24T12:19:47.515Z,1.93
2018-09-24T12:22:21.135Z,1.40
2018-09-24T12:24:54.746Z,1.50
2018-09-24T12:27:28.375Z,1.67
2018-09-24T12:30:01.931Z,1.50
2018-09-24T12:32:35.436Z,1.20
2018-09-24T12:35:10.069Z,1.33
2018-09-24T12:37:49.242Z,1.30
2018-09-24T12:40:22.799Z,1.30
2018-09-24T12:42:56.475Z,1.50
2018-09-24T12:45:30.134Z,1.73
2018-09-24T12:48:03.761Z,2.33
2018-09-24T12:50:37.323Z,1.65
2018-09-24T12:53:10.843Z,2.02
2018-09-24T12:55:44.461Z,2.20
2018-09-24T12:58:18.076Z,1.93
2018-09-24T13:00:51.617Z,1.73
2018-09-24T13:03:25.150Z,1.70
2018-09-24T13:05:58.656Z,1.57
2018-09-24T13:08:32.264Z,1.70
2018-09-24T13:11:05.776Z,1.87
2018-09-24T13:13:39.334Z,1.70
2018-09-24T13:18:53.739Z,1.53
2018-09-24T13:21:27.271Z,1.87
2018-09-24T13:24:00.726Z,1.47
2018-09-24T13:26:34.383Z,1.17
2018-09-24T13:29:08.126Z,2.00
2018-09-24T13:31:41.615Z,1.37
2018-09-24T13:34:15.300Z,1.23
2018-09-24T13:36:48.822Z,1.30
2018-09-24T13:39:22.336Z,1.50
2018-09-24T13:41:55.873Z,1.30
2018-09-24T13:44:29.524Z,1.10
2018-09-24T13:47:03.227Z,0.87
2018-09-24T13:49:36.714Z,1.20
2018-09-24T13:52:10.189Z,1.20
2018-09-24T13:54:43.802Z,1.77
2018-09-24T13:57:17.322Z,1.30
2018-09-24T13:59:50.922Z,1.40
2018-09-24T14:02:24.420Z,1.13
2018-09-24T14:04:58.089Z,1.20
2018-09-24T14:07:31.725Z,1.70
2018-09-24T14:10:05.062Z,1.43
2018-09-24T14:12:38.700Z,1.73
2018-09-24T14:15:12.377Z,1.50
2018-09-24T14:17:45.937Z,1.20
2018-09-24T14:20:19.588Z,1.67
2018-09-24T14:22:53.371Z,1.30
2018-09-24T14:25:26.912Z,1.50
2018-09-24T14:28:00.511Z,1.53
2018-09-24T14:30:33.854Z,1.67
2018-09-24T14:33:07.508Z,1.67
2018-09-24T14:35:41.164Z,0.87
2018-09-24T14:38:14.784Z,1.60
2018-09-24T14:40:48.490Z,1.20
2018-09-24T14:43:22.151Z,1.00
2018-09-24T14:45:55.782Z,1.30
2018-09-24T14:48:29.388Z,0.80
2018-09-24T14:51:02.931Z,2.00
2018-09-24T14:53:36.542Z,1.65
2018-09-24T14:56:11.135Z,1.25
2018-09-24T14:58:44.851Z,1.60
2018-09-24T15:01:18.547Z,1.77
2018-09-24T15:03:52.035Z,1.50
2018-09-24T15:06:25.556Z,1.40
2018-09-24T15:08:59.199Z,1.42
2018-09-24T15:11:32.746Z,1.10
2018-09-24T15:14:06.287Z,1.30
2018-09-24T15:16:39.891Z,1.63
2018-09-24T15:19:13.577Z,0.97
2018-09-24T15:21:47.348Z,1.37
2018-09-24T15:24:21.065Z,1.50
2018-09-24T15:26:54.576Z,1.10
2018-09-24T15:29:28.155Z,1.35
2018-09-24T15:32:01.602Z,1.10
2018-09-24T15:34:35.280Z,1.00
2018-09-24T15:37:08.992Z,1.00
2018-09-24T15:39:42.496Z,1.10
2018-09-24T15:42:16.156Z,1.00
2018-09-24T15:44:50.011Z,1.32
2018-09-24T15:47:24.150Z,0.80
2018-09-24T15:49:59.167Z,1.15
2018-09-24T15:52:32.823Z,1.10
2018-09-24T15:55:09.624Z,0.90
2018-09-24T15:57:43.291Z,1.30
2018-09-24T16:00:16.929Z,1.10
2018-09-24T16:02:50.855Z,0.85
2018-09-24T16:05:24.671Z,0.75
2018-09-24T16:07:58.199Z,0.62
2018-09-24T16:10:31.856Z,1.27
2018-09-24T16:13:05.539Z,1.25
2018-09-24T16:15:39.194Z,1.00
2018-09-24T16:18:12.685Z,1.00
2018-09-24T16:20:46.305Z,1.25
2018-09-24T16:23:19.974Z,1.67
2018-09-24T16:25:53.494Z,1.42
2018-09-24T16:28:26.999Z,1.35
2018-09-24T16:31:00.479Z,0.90
2018-09-24T16:33:34.070Z,1.10
2018-09-24T16:36:07.660Z,1.05
2018-09-24T16:38:41.381Z,1.17
2018-09-24T16:41:14.856Z,1.25
2018-09-24T16:43:49.195Z,1.60
2018-09-24T16:46:22.644Z,1.20
2018-09-24T16:48:56.204Z,1.15
2018-09-24T16:51:32.379Z,1.10
2018-09-24T16:54:06.029Z,0.98
2018-09-24T16:56:50.816Z,1.65
2018-09-24T16:59:25.284Z,0.98
2018-09-24T17:01:58.827Z,1.10
2018-09-24T17:04:34.318Z,1.40
2018-09-24T17:07:07.870Z,1.67
2018-09-24T17:09:41.563Z,1.42
2018-09-24T17:12:15.127Z,1.40
2018-09-24T17:14:48.883Z,1.27
2018-09-24T17:17:22.745Z,1.57
2018-09-24T17:19:56.421Z,1.45
2018-09-24T17:25:20.510Z,1.37
2018-09-24T17:27:56.242Z,1.65
2018-09-24T17:30:30.979Z,2.25
2018-09-24T17:33:05.645Z,1.75
2018-09-24T17:35:40.573Z,1.35
2018-09-24T17:38:14.051Z,1.40
2018-09-24T17:40:47.539Z,1.37
2018-09-24T17:43:21.164Z,1.20
2018-09-24T17:45:54.634Z,1.42
2018-09-24T17:48:28.145Z,1.15
2018-09-24T17:51:01.728Z,1.80
2018-09-24T17:53:35.125Z,1.50
2018-09-24T17:56:08.796Z,2.05
2018-09-24T17:58:42.449Z,1.72
2018-09-24T18:01:16.133Z,1.30
2018-09-24T18:03:49.778Z,1.82
2018-09-24T18:06:23.532Z,1.70
2018-09-24T18:08:57.128Z,2.17
2018-09-24T18:11:30.724Z,1.40
2018-09-24T18:14:04.364Z,2.00
2018-09-24T18:16:38.099Z,2.00
2018-09-24T18:19:11.675Z,2.50
2018-09-24T18:21:45.476Z,2.35
2018-09-24T18:24:18.910Z,2.80
2018-09-24T18:26:52.627Z,3.02
2018-09-24T18:29:26.230Z,2.55
2018-09-24T18:31:59.907Z,3.33
2018-09-24T18:34:33.503Z,2.20
2018-09-24T18:37:07.043Z,2.47
2018-09-24T18:39:40.661Z,2.35
2018-09-24T18:42:14.327Z,1.90
2018-09-24T18:44:47.848Z,1.92
2018-09-24T18:47:22.540Z,1.72
2018-09-24T18:49:56.238Z,2.17
2018-09-24T18:52:29.863Z,1.70
2018-09-24T18:55:03.515Z,2.10
2018-09-24T18:57:36.939Z,1.70
2018-09-24T19:00:11.647Z,1.72
2018-09-24T19:02:45.316Z,2.05
2018-09-24T19:05:18.820Z,2.40
2018-09-24T19:07:52.364Z,2.42
2018-09-24T19:10:25.974Z,2.15
2018-09-24T19:12:59.377Z,2.00
2018-09-24T19:15:33.015Z,1.98
2018-09-24T19:18:06.636Z,2.58
2018-09-24T19:20:40.111Z,2.45
2018-09-24T19:23:14.651Z,1.90
2018-09-24T19:25:48.301Z,1.50
2018-09-24T19:28:21.855Z,1.57
2018-09-24T19:30:56.562Z,2.05
2018-09-24T19:33:30.082Z,2.00
2018-09-24T19:36:04.687Z,2.08
2018-09-24T19:38:39.224Z,2.20
2018-09-24T19:41:12.849Z,2.20
2018-09-24T19:43:46.359Z,2.00
2018-09-24T19:46:19.836Z,1.80
2018-09-24T19:48:53.287Z,2.05
2018-09-24T19:51:26.813Z,1.80
2018-09-24T19:54:00.431Z,1.52
2018-09-24T19:56:34.050Z,1.52
2018-09-24T19:59:07.517Z,2.27
2018-09-24T20:01:41.207Z,2.67
2018-09-24T20:04:14.712Z,2.52
2018-09-24T20:06:48.106Z,2.15
2018-09-24T20:09:21.680Z,2.10
2018-09-24T20:11:55.178Z,2.12
2018-09-24T20:14:28.732Z,1.67
2018-09-24T20:17:02.330Z,1.60
2018-09-24T20:19:35.792Z,1.55
2018-09-24T20:22:12.016Z,2.20
2018-09-24T20:24:45.980Z,2.22
2018-09-24T20:27:21.243Z,2.30
2018-09-24T20:29:54.766Z,2.30
2018-09-24T20:32:30.535Z,1.75
2018-09-24T20:35:03.986Z,2.00
2018-09-24T20:37:37.395Z,2.10
2018-09-24T20:40:10.925Z,3.00
2018-09-24T20:42:44.475Z,1.82
2018-09-24T20:45:17.965Z,2.20
2018-09-24T20:47:51.624Z,2.05
2018-09-24T20:50:25.276Z,2.10
2018-09-24T20:52:58.851Z,1.90
2018-09-24T20:55:32.490Z,2.20
2018-09-24T20:58:06.159Z,1.87
2018-09-24T21:00:39.655Z,2.10
2018-09-24T21:03:13.316Z,1.87
2018-09-24T21:05:46.786Z,1.90
2018-09-24T21:08:20.281Z,1.65
2018-09-24T21:10:53.875Z,2.25
2018-09-24T21:13:27.319Z,2.00
2018-09-24T21:16:00.971Z,2.70
2018-09-24T21:18:34.608Z,2.33
2018-09-24T21:21:08.215Z,2.27
2018-09-24T21:23:41.791Z,2.67
2018-09-24T21:26:15.519Z,2.15
2018-09-24T21:28:49.116Z,2.42
2018-09-24T21:31:22.738Z,2.22
2018-09-24T21:33:56.206Z,1.80
2018-09-24T21:36:29.752Z,1.70
2018-09-24T21:39:03.328Z,2.05
2018-09-24T21:41:36.921Z,1.52
2018-09-24T21:44:10.568Z,1.70
2018-09-24T21:46:44.089Z,1.92
2018-09-24T21:49:17.503Z,2.10
2018-09-24T21:51:50.894Z,2.33
2018-09-24T21:54:24.582Z,2.00
2018-09-24T21:56:57.953Z,2.10
2018-09-24T21:59:31.626Z,2.17
2018-09-24T22:02:05.064Z,2.10
2018-09-24T22:04:38.734Z,2.08
2018-09-24T22:07:12.372Z,2.65
2018-09-24T22:09:45.810Z,1.85
2018-09-24T22:12:19.408Z,1.95
2018-09-24T22:14:59.841Z,2.27
2018-09-24T22:17:33.441Z,1.67
2018-09-24T22:20:07.062Z,1.82
2018-09-24T22:22:40.522Z,2.00
2018-09-24T22:25:14.184Z,2.20
2018-09-24T22:27:47.711Z,1.95
2018-09-24T22:30:21.256Z,2.70
2018-09-24T22:32:54.928Z,1.20
2018-09-24T22:35:28.408Z,1.70
2018-09-24T22:38:02.068Z,1.55
2018-09-24T22:40:35.684Z,1.50
2018-09-24T22:43:09.208Z,2.02
2018-09-24T22:45:42.871Z,1.95
2018-09-24T22:48:16.464Z,1.75
2018-09-24T22:50:50.044Z,2.12
2018-09-24T22:53:23.403Z,1.60
2018-09-24T22:55:57.020Z,2.17
2018-09-24T22:58:30.531Z,1.62
2018-09-24T23:01:04.163Z,2.20
2018-09-24T23:03:37.768Z,2.15
2018-09-24T23:06:11.373Z,1.55
2018-09-24T23:08:44.912Z,2.27
2018-09-24T23:11:18.490Z,2.90
2018-09-24T23:13:51.871Z,2.42
2018-09-24T23:16:25.543Z,3.10
2018-09-24T23:18:59.162Z,2.08
2018-09-24T23:21:32.760Z,1.98
2018-09-24T23:24:07.123Z,1.70
2018-09-24T23:26:40.579Z,2.00
2018-09-24T23:29:14.153Z,1.52
2018-09-24T23:31:47.738Z,1.72
2018-09-24T23:34:21.333Z,1.80
2018-09-24T23:36:54.923Z,1.95
2018-09-24T23:39:28.340Z,2.00
2018-09-24T23:42:01.738Z,1.75
2018-09-24T23:44:35.206Z,1.45
2018-09-24T23:47:08.825Z,1.77
2018-09-24T23:49:42.270Z,2.00
2018-09-24T23:52:15.682Z,2.37
2018-09-24T23:54:49.330Z,1.80
2018-09-24T23:57:22.891Z,1.72
2018-09-24T23:59:56.423Z,1.60
